Breckenridge, Minnesota
Current Conditions -  °F | °C
As of 3:15 AM on Thursday 27 Nov 2014 (Local Time) from KBWP Reporting Station
Clear Clear  
Wind Chill: -21°   Ceiling: Unl
Heat Index: -9°   Visibility: 10mi
Dew Point: -17°   Wind: 5mph
Humidity: 71%   Direction: 300°WNW
Pressure: 30.55"   Gusts: NA
Location:  46.26°N, 96.59°W
Report Text: KBWP 270915Z AUTO 30004KT 10SM CLR M23/M27 A3055 RMK AO1
Loading
Personal Weather Stations






























Interactive Weather Map New forecast layout! Learn more

10-Day Weather Forecast

Advertisements
Track Severe Weather on mobile